EZS74RG LSGG-LPPR
Flight info
| Callsign | EZS74RG |
|---|---|
| Flight time | 2h 0m |
| Altitude | 35000 |
| Route | DEPUL T544 LSE DCT RUSIT DCT ESIDA DCT LERGA DCT MINSO DCT NARAK DCT AGN DCT PIPOR DCT PPN DCT MIRPO DCT DGO DCT NEA DCT ZMR L155 ADORO DCT INKIT |
| Aircraft | A320/M-SDE3FGHIRWY/LB1 |
Departure
| Time | 2026-05-08 04:17 |
|---|---|
| Airport | Geneva International Airport (LSGG) |
Arrival
| Time | 2026-05-08 06:18 |
|---|---|
| Airport | Francisco de Sá Carneiro Airport (LPPR) |
| Time | Latitude | Longitude | Altitude | Speed | Heading |
|---|---|---|---|---|---|
| 2026-05-08 04:04 | 46.23049 | 6.10265 | 1398 ft | 0 kts | 181° |
| 2026-05-08 04:14 | 46.23023 | 6.10228 | 1397 ft | 9 kts | 272° |
| 2026-05-08 04:14 | 46.23056 | 6.10135 | 1400 ft | 10 kts | 264° |
| 2026-05-08 04:14 | 46.22996 | 6.10040 | 1396 ft | 14 kts | 226° |
| 2026-05-08 04:14 | 46.22929 | 6.09942 | 1399 ft | 13 kts | 226° |
| 2026-05-08 04:15 | 46.22858 | 6.09837 | 1398 ft | 16 kts | 225° |
| 2026-05-08 04:15 | 46.22782 | 6.09725 | 1397 ft | 15 kts | 225° |
| 2026-05-08 04:15 | 46.22692 | 6.09596 | 1399 ft | 20 kts | 225° |
| 2026-05-08 04:15 | 46.22595 | 6.09450 | 1396 ft | 20 kts | 229° |
| 2026-05-08 04:16 | 46.22551 | 6.09273 | 1407 ft | 17 kts | 268° |
| 2026-05-08 04:16 | 46.22607 | 6.09154 | 1420 ft | 13 kts | 358° |
| 2026-05-08 04:16 | 46.22674 | 6.09236 | 1417 ft | 15 kts | 44° |
| 2026-05-08 04:16 | 46.22883 | 6.09543 | 1416 ft | 78 kts | 45° |
| 2026-05-08 04:17 | 46.23420 | 6.10330 | 1397 ft | 139 kts | 45° |
| 2026-05-08 04:17 | 46.24197 | 6.11483 | 1547 ft | 170 kts | 46° |
| 2026-05-08 04:17 | 46.24735 | 6.12291 | 2041 ft | 169 kts | 46° |
| 2026-05-08 04:17 | 46.25567 | 6.13533 | 2602 ft | 179 kts | 45° |
| 2026-05-08 04:18 | 46.26486 | 6.14880 | 2926 ft | 197 kts | 45° |
| 2026-05-08 04:18 | 46.27509 | 6.16365 | 3198 ft | 221 kts | 45° |
| 2026-05-08 04:18 | 46.28640 | 6.18019 | 3623 ft | 241 kts | 45° |
| 2026-05-08 04:18 | 46.29862 | 6.19815 | 4093 ft | 260 kts | 45° |
| 2026-05-08 04:19 | 46.31150 | 6.21713 | 4807 ft | 268 kts | 45° |
| 2026-05-08 04:19 | 46.32473 | 6.23655 | 5587 ft | 274 kts | 45° |
| 2026-05-08 04:19 | 46.33830 | 6.25641 | 6360 ft | 280 kts | 45° |
| 2026-05-08 04:19 | 46.35216 | 6.27653 | 7088 ft | 285 kts | 42° |
| 2026-05-08 04:20 | 46.36938 | 6.29058 | 7805 ft | 289 kts | 11° |
| 2026-05-08 04:20 | 46.38921 | 6.28934 | 8530 ft | 288 kts | 338° |
| 2026-05-08 04:20 | 46.40644 | 6.27506 | 9311 ft | 286 kts | 316° |
| 2026-05-08 04:20 | 46.41893 | 6.25296 | 10002 ft | 287 kts | 294° |
| 2026-05-08 04:21 | 46.42510 | 6.22534 | 10548 ft | 292 kts | 277° |
| 2026-05-08 04:21 | 46.42518 | 6.19614 | 11199 ft | 295 kts | 254° |
| 2026-05-08 04:21 | 46.41556 | 6.16935 | 11463 ft | 311 kts | 227° |
| 2026-05-08 04:21 | 46.39880 | 6.14791 | 11779 ft | 327 kts | 219° |
| 2026-05-08 04:22 | 46.38141 | 6.12633 | 12432 ft | 332 kts | 221° |
| 2026-05-08 04:22 | 46.36430 | 6.10356 | 13107 ft | 336 kts | 223° |
| 2026-05-08 04:22 | 46.34734 | 6.07997 | 13781 ft | 340 kts | 223° |
| 2026-05-08 04:22 | 46.33036 | 6.05592 | 14379 ft | 344 kts | 224° |
| 2026-05-08 04:23 | 46.31321 | 6.03156 | 14981 ft | 346 kts | 224° |
| 2026-05-08 04:23 | 46.29593 | 6.00712 | 15596 ft | 349 kts | 224° |
| 2026-05-08 04:23 | 46.27844 | 5.98257 | 16220 ft | 351 kts | 223° |
| 2026-05-08 04:23 | 46.26082 | 5.95798 | 16828 ft | 354 kts | 223° |
| 2026-05-08 04:24 | 46.24302 | 5.93319 | 17425 ft | 357 kts | 223° |
| 2026-05-08 04:24 | 46.22504 | 5.90818 | 18021 ft | 359 kts | 223° |
| 2026-05-08 04:24 | 46.20697 | 5.88305 | 18554 ft | 362 kts | 224° |
| 2026-05-08 04:24 | 46.18872 | 5.85773 | 19059 ft | 365 kts | 224° |
| 2026-05-08 04:25 | 46.17060 | 5.83266 | 19545 ft | 367 kts | 224° |
| 2026-05-08 04:25 | 46.15185 | 5.80674 | 20068 ft | 370 kts | 224° |
| 2026-05-08 04:25 | 46.13345 | 5.78130 | 20553 ft | 372 kts | 224° |
| 2026-05-08 04:25 | 46.11479 | 5.75544 | 21012 ft | 374 kts | 224° |
| 2026-05-08 04:26 | 46.09594 | 5.72934 | 21489 ft | 376 kts | 224° |
| 2026-05-08 04:26 | 46.07696 | 5.70313 | 21956 ft | 379 kts | 224° |
| 2026-05-08 04:26 | 46.05789 | 5.67689 | 22432 ft | 381 kts | 224° |
| 2026-05-08 04:26 | 46.03858 | 5.65038 | 22894 ft | 383 kts | 224° |
| 2026-05-08 04:27 | 46.01925 | 5.62381 | 23320 ft | 386 kts | 224° |
| 2026-05-08 04:27 | 45.99976 | 5.59702 | 23736 ft | 389 kts | 224° |
| 2026-05-08 04:27 | 45.98015 | 5.57011 | 24126 ft | 390 kts | 224° |
| 2026-05-08 04:27 | 45.96050 | 5.54317 | 24542 ft | 390 kts | 224° |
| 2026-05-08 04:28 | 45.94084 | 5.51623 | 24945 ft | 391 kts | 224° |
| 2026-05-08 04:28 | 45.92272 | 5.48779 | 25332 ft | 392 kts | 233° |
| 2026-05-08 04:28 | 45.90744 | 5.45480 | 25721 ft | 392 kts | 238° |
| 2026-05-08 04:28 | 45.89308 | 5.42209 | 26117 ft | 393 kts | 237° |
| 2026-05-08 04:29 | 45.87844 | 5.38888 | 26495 ft | 394 kts | 237° |
| 2026-05-08 04:29 | 45.86370 | 5.35565 | 26869 ft | 395 kts | 237° |
| 2026-05-08 04:29 | 45.84892 | 5.32240 | 27243 ft | 396 kts | 237° |
| 2026-05-08 04:29 | 45.83415 | 5.28918 | 27672 ft | 395 kts | 237° |
| 2026-05-08 04:30 | 45.81931 | 5.25594 | 28086 ft | 394 kts | 237° |
| 2026-05-08 04:30 | 45.80454 | 5.22286 | 28489 ft | 394 kts | 237° |
| 2026-05-08 04:30 | 45.78978 | 5.18972 | 28858 ft | 395 kts | 237° |
| 2026-05-08 04:30 | 45.77498 | 5.15652 | 29213 ft | 395 kts | 237° |
| 2026-05-08 04:31 | 45.76015 | 5.12328 | 29552 ft | 396 kts | 237° |
| 2026-05-08 04:31 | 45.74530 | 5.09005 | 29869 ft | 398 kts | 237° |
| 2026-05-08 04:31 | 45.73092 | 5.05593 | 30045 ft | 402 kts | 239° |
| 2026-05-08 04:31 | 45.71720 | 5.02098 | 30259 ft | 405 kts | 240° |
| 2026-05-08 04:32 | 45.70384 | 4.98550 | 30471 ft | 407 kts | 240° |
| 2026-05-08 04:32 | 45.69045 | 4.94962 | 30682 ft | 409 kts | 240° |
| 2026-05-08 04:32 | 45.67696 | 4.91375 | 30919 ft | 410 kts | 240° |
| 2026-05-08 04:32 | 45.66339 | 4.87797 | 31233 ft | 409 kts | 240° |
| 2026-05-08 04:33 | 45.65024 | 4.84206 | 31614 ft | 407 kts | 242° |
| 2026-05-08 04:33 | 45.63747 | 4.80599 | 31934 ft | 406 kts | 242° |
| 2026-05-08 04:33 | 45.62491 | 4.76993 | 32224 ft | 407 kts | 242° |
| 2026-05-08 04:33 | 45.61231 | 4.73367 | 32507 ft | 407 kts | 242° |
| 2026-05-08 04:34 | 45.59967 | 4.69749 | 32792 ft | 407 kts | 242° |
| 2026-05-08 04:34 | 45.58698 | 4.66146 | 33026 ft | 409 kts | 242° |
| 2026-05-08 04:34 | 45.57407 | 4.62508 | 33188 ft | 412 kts | 242° |
| 2026-05-08 04:34 | 45.56106 | 4.58863 | 33419 ft | 413 kts | 242° |
| 2026-05-08 04:35 | 45.54799 | 4.55212 | 33698 ft | 413 kts | 242° |
| 2026-05-08 04:35 | 45.53495 | 4.51571 | 33986 ft | 413 kts | 242° |
| 2026-05-08 04:35 | 45.52187 | 4.47923 | 34223 ft | 413 kts | 242° |
| 2026-05-08 04:35 | 45.50876 | 4.44270 | 34456 ft | 413 kts | 242° |
| 2026-05-08 04:36 | 45.49570 | 4.40628 | 34666 ft | 414 kts | 242° |
| 2026-05-08 04:36 | 45.48256 | 4.36976 | 34901 ft | 413 kts | 242° |
| 2026-05-08 04:36 | 45.46946 | 4.33331 | 35005 ft | 412 kts | 242° |
| 2026-05-08 04:36 | 45.45643 | 4.29711 | 35034 ft | 410 kts | 242° |
| 2026-05-08 04:37 | 45.43059 | 4.22544 | 35030 ft | 410 kts | 242° |
| 2026-05-08 04:37 | 45.40444 | 4.15314 | 35033 ft | 411 kts | 242° |
| 2026-05-08 04:38 | 45.37820 | 4.08088 | 35037 ft | 411 kts | 242° |
| 2026-05-08 04:38 | 45.35187 | 4.00856 | 35043 ft | 411 kts | 242° |
| 2026-05-08 04:39 | 45.32558 | 3.93633 | 35061 ft | 412 kts | 242° |
| 2026-05-08 04:39 | 45.29918 | 3.86420 | 35062 ft | 411 kts | 242° |
| 2026-05-08 04:40 | 45.27273 | 3.79230 | 35052 ft | 412 kts | 242° |
| 2026-05-08 04:40 | 45.24365 | 3.72227 | 35054 ft | 412 kts | 236° |
| 2026-05-08 04:41 | 45.21079 | 3.65557 | 35052 ft | 413 kts | 236° |
| 2026-05-08 04:41 | 45.17790 | 3.58898 | 35064 ft | 413 kts | 235° |
| 2026-05-08 04:42 | 45.14514 | 3.52268 | 35059 ft | 413 kts | 236° |
| 2026-05-08 04:42 | 45.11214 | 3.45607 | 35052 ft | 413 kts | 236° |
| 2026-05-08 04:43 | 45.07910 | 3.38971 | 35056 ft | 413 kts | 236° |
| 2026-05-08 04:43 | 45.04600 | 3.32327 | 35058 ft | 413 kts | 236° |
| 2026-05-08 04:44 | 45.01292 | 3.25687 | 35056 ft | 413 kts | 236° |
| 2026-05-08 04:44 | 44.97980 | 3.19058 | 35056 ft | 413 kts | 235° |
| 2026-05-08 04:45 | 44.94669 | 3.12443 | 35044 ft | 413 kts | 236° |
| 2026-05-08 04:45 | 44.91346 | 3.05823 | 35052 ft | 413 kts | 235° |
| 2026-05-08 04:46 | 44.88018 | 2.99228 | 35043 ft | 413 kts | 236° |
| 2026-05-08 04:46 | 44.84680 | 2.92620 | 35026 ft | 414 kts | 236° |
| 2026-05-08 04:47 | 44.81480 | 2.85881 | 35019 ft | 414 kts | 239° |
| 2026-05-08 04:47 | 44.78399 | 2.79023 | 35020 ft | 414 kts | 239° |
| 2026-05-08 04:48 | 44.75296 | 2.72181 | 35014 ft | 415 kts | 238° |
| 2026-05-08 04:48 | 44.72151 | 2.65379 | 35015 ft | 415 kts | 239° |
| 2026-05-08 04:49 | 44.68996 | 2.58591 | 35007 ft | 415 kts | 238° |
| 2026-05-08 04:49 | 44.65854 | 2.51861 | 34995 ft | 415 kts | 238° |
| 2026-05-08 04:50 | 44.62690 | 2.45083 | 35001 ft | 415 kts | 238° |
| 2026-05-08 04:50 | 44.59530 | 2.38310 | 34990 ft | 415 kts | 239° |
| 2026-05-08 04:51 | 44.56370 | 2.31546 | 34989 ft | 414 kts | 239° |
| 2026-05-08 04:51 | 44.53198 | 2.24796 | 34992 ft | 414 kts | 239° |
| 2026-05-08 04:52 | 44.50021 | 2.18067 | 34991 ft | 414 kts | 239° |
| 2026-05-08 04:52 | 44.46843 | 2.11340 | 34987 ft | 414 kts | 239° |
| 2026-05-08 04:53 | 44.43662 | 2.04605 | 34986 ft | 414 kts | 239° |
| 2026-05-08 04:53 | 44.40480 | 1.97888 | 34979 ft | 414 kts | 239° |
| 2026-05-08 04:54 | 44.37295 | 1.91178 | 34967 ft | 414 kts | 239° |
| 2026-05-08 04:54 | 44.34100 | 1.84472 | 34967 ft | 414 kts | 240° |
| 2026-05-08 04:55 | 44.30932 | 1.77839 | 34970 ft | 413 kts | 240° |
| 2026-05-08 04:55 | 44.27761 | 1.71153 | 34974 ft | 413 kts | 240° |
| 2026-05-08 04:56 | 44.24674 | 1.64404 | 34976 ft | 413 kts | 241° |
| 2026-05-08 04:56 | 44.21600 | 1.57636 | 34979 ft | 413 kts | 241° |
| 2026-05-08 04:57 | 44.18508 | 1.50908 | 34961 ft | 412 kts | 241° |
| 2026-05-08 04:57 | 44.15404 | 1.44199 | 34975 ft | 411 kts | 241° |
| 2026-05-08 04:58 | 44.12312 | 1.37526 | 34979 ft | 410 kts | 241° |
| 2026-05-08 04:58 | 44.09213 | 1.30856 | 34977 ft | 410 kts | 241° |
| 2026-05-08 04:59 | 44.06119 | 1.24206 | 34975 ft | 409 kts | 241° |
| 2026-05-08 04:59 | 44.03024 | 1.17568 | 34968 ft | 409 kts | 241° |
| 2026-05-08 05:00 | 43.99930 | 1.10945 | 34953 ft | 408 kts | 242° |
| 2026-05-08 05:00 | 43.96858 | 1.04387 | 34962 ft | 407 kts | 242° |
| 2026-05-08 05:01 | 43.93773 | 0.97820 | 34966 ft | 406 kts | 242° |
| 2026-05-08 05:01 | 43.90691 | 0.91281 | 34959 ft | 405 kts | 242° |
| 2026-05-08 05:02 | 43.87625 | 0.84733 | 34954 ft | 404 kts | 243° |
| 2026-05-08 05:02 | 43.84747 | 0.78060 | 34955 ft | 402 kts | 245° |
| 2026-05-08 05:03 | 43.81936 | 0.71355 | 34936 ft | 401 kts | 245° |
| 2026-05-08 05:03 | 43.79103 | 0.64716 | 34968 ft | 400 kts | 244° |
| 2026-05-08 05:04 | 43.76244 | 0.58114 | 34962 ft | 398 kts | 244° |
| 2026-05-08 05:04 | 43.73394 | 0.51557 | 34964 ft | 398 kts | 244° |
| 2026-05-08 05:05 | 43.70547 | 0.45012 | 34955 ft | 397 kts | 244° |
| 2026-05-08 05:05 | 43.68179 | 0.39572 | 34954 ft | 397 kts | 244° |
| 2026-05-08 05:06 | 43.65332 | 0.33037 | 34946 ft | 397 kts | 244° |
| 2026-05-08 05:06 | 43.62481 | 0.26517 | 34933 ft | 396 kts | 244° |
| 2026-05-08 05:07 | 43.59625 | 0.20027 | 34949 ft | 395 kts | 244° |
| 2026-05-08 05:07 | 43.56780 | 0.13558 | 34953 ft | 394 kts | 244° |
| 2026-05-08 05:08 | 43.53937 | 0.07092 | 34952 ft | 393 kts | 244° |
| 2026-05-08 05:08 | 43.51099 | 0.00653 | 34949 ft | 393 kts | 244° |
| 2026-05-08 05:09 | 43.48251 | -0.05779 | 34906 ft | 394 kts | 243° |
| 2026-05-08 05:09 | 43.45393 | -0.12218 | 34903 ft | 395 kts | 243° |
| 2026-05-08 05:10 | 43.41108 | -0.21875 | 34891 ft | 396 kts | 243° |
| 2026-05-08 05:11 | 43.38228 | -0.28346 | 34893 ft | 396 kts | 243° |
| 2026-05-08 05:11 | 43.35347 | -0.34804 | 34899 ft | 396 kts | 243° |
| 2026-05-08 05:12 | 43.32457 | -0.41263 | 34904 ft | 396 kts | 242° |
| 2026-05-08 05:12 | 43.29569 | -0.47702 | 34907 ft | 396 kts | 242° |
| 2026-05-08 05:13 | 43.26673 | -0.54135 | 34911 ft | 396 kts | 242° |
| 2026-05-08 05:13 | 43.23771 | -0.60565 | 34918 ft | 396 kts | 242° |
| 2026-05-08 05:14 | 43.20873 | -0.66986 | 34916 ft | 396 kts | 242° |
| 2026-05-08 05:14 | 43.17974 | -0.73395 | 34929 ft | 395 kts | 242° |
| 2026-05-08 05:15 | 43.15066 | -0.79798 | 34935 ft | 395 kts | 242° |
| 2026-05-08 05:15 | 43.12163 | -0.86185 | 34950 ft | 396 kts | 242° |
| 2026-05-08 05:16 | 43.09254 | -0.92584 | 34957 ft | 395 kts | 241° |
| 2026-05-08 05:16 | 43.06348 | -0.98965 | 34954 ft | 396 kts | 242° |
| 2026-05-08 05:17 | 43.03427 | -1.05341 | 34953 ft | 395 kts | 241° |
| 2026-05-08 05:17 | 43.00500 | -1.11713 | 34933 ft | 395 kts | 241° |
| 2026-05-08 05:18 | 42.97586 | -1.18057 | 34947 ft | 395 kts | 240° |
| 2026-05-08 05:18 | 42.94679 | -1.24360 | 34948 ft | 395 kts | 240° |
| 2026-05-08 05:19 | 42.91730 | -1.30739 | 34940 ft | 394 kts | 240° |
| 2026-05-08 05:19 | 42.88822 | -1.37023 | 34955 ft | 394 kts | 240° |
| 2026-05-08 05:20 | 42.85891 | -1.43349 | 34957 ft | 395 kts | 240° |
| 2026-05-08 05:20 | 42.82962 | -1.49670 | 34960 ft | 394 kts | 240° |
| 2026-05-08 05:21 | 42.80025 | -1.55980 | 34964 ft | 394 kts | 239° |
| 2026-05-08 05:21 | 42.77075 | -1.62289 | 34963 ft | 395 kts | 239° |
| 2026-05-08 05:22 | 42.74143 | -1.68604 | 34956 ft | 394 kts | 242° |
| 2026-05-08 05:22 | 42.72183 | -1.75530 | 34959 ft | 393 kts | 253° |
| 2026-05-08 05:23 | 42.70587 | -1.82652 | 34956 ft | 394 kts | 253° |
| 2026-05-08 05:23 | 42.68981 | -1.89754 | 34933 ft | 394 kts | 253° |
| 2026-05-08 05:24 | 42.67365 | -1.96878 | 34943 ft | 395 kts | 252° |
| 2026-05-08 05:24 | 42.65742 | -2.04022 | 34931 ft | 396 kts | 252° |
| 2026-05-08 05:25 | 42.64123 | -2.11115 | 34931 ft | 396 kts | 252° |
| 2026-05-08 05:25 | 42.62474 | -2.18262 | 34937 ft | 396 kts | 252° |
| 2026-05-08 05:26 | 42.60758 | -2.25384 | 34932 ft | 397 kts | 251° |
| 2026-05-08 05:26 | 42.59009 | -2.32495 | 34939 ft | 397 kts | 251° |
| 2026-05-08 05:27 | 42.57269 | -2.39608 | 34932 ft | 398 kts | 251° |
| 2026-05-08 05:27 | 42.55524 | -2.46739 | 34927 ft | 398 kts | 251° |
| 2026-05-08 05:28 | 42.53777 | -2.53875 | 34933 ft | 399 kts | 251° |
| 2026-05-08 05:28 | 42.52025 | -2.61014 | 34941 ft | 399 kts | 251° |
| 2026-05-08 05:29 | 42.50270 | -2.68150 | 34957 ft | 399 kts | 250° |
| 2026-05-08 05:29 | 42.48510 | -2.75279 | 34954 ft | 400 kts | 250° |
| 2026-05-08 05:30 | 42.46734 | -2.82419 | 34948 ft | 400 kts | 250° |
| 2026-05-08 05:30 | 42.44847 | -2.89504 | 34943 ft | 399 kts | 244° |
| 2026-05-08 05:31 | 42.42548 | -2.96283 | 34949 ft | 399 kts | 244° |
| 2026-05-08 05:31 | 42.40223 | -3.03112 | 34937 ft | 400 kts | 244° |
| 2026-05-08 05:32 | 42.37888 | -3.09941 | 34948 ft | 400 kts | 243° |
| 2026-05-08 05:32 | 42.35551 | -3.16772 | 34930 ft | 400 kts | 243° |
| 2026-05-08 05:33 | 42.33217 | -3.23600 | 34927 ft | 400 kts | 243° |
| 2026-05-08 05:33 | 42.30870 | -3.30425 | 34935 ft | 400 kts | 243° |
| 2026-05-08 05:34 | 42.28521 | -3.37232 | 34923 ft | 400 kts | 243° |
| 2026-05-08 05:34 | 42.26172 | -3.44034 | 34929 ft | 400 kts | 243° |
| 2026-05-08 05:35 | 42.23812 | -3.50856 | 34920 ft | 401 kts | 242° |
| 2026-05-08 05:35 | 42.21445 | -3.57672 | 34915 ft | 401 kts | 242° |
| 2026-05-08 05:36 | 42.19077 | -3.64471 | 34935 ft | 401 kts | 242° |
| 2026-05-08 05:36 | 42.16701 | -3.71278 | 34934 ft | 401 kts | 242° |
| 2026-05-08 05:37 | 42.14335 | -3.78042 | 34932 ft | 401 kts | 242° |
| 2026-05-08 05:37 | 42.11948 | -3.84852 | 34938 ft | 402 kts | 242° |
| 2026-05-08 05:38 | 42.09551 | -3.91678 | 34937 ft | 403 kts | 242° |
| 2026-05-08 05:38 | 42.07156 | -3.98495 | 34934 ft | 403 kts | 242° |
| 2026-05-08 05:39 | 42.04746 | -4.05307 | 34937 ft | 403 kts | 242° |
| 2026-05-08 05:39 | 42.02342 | -4.12107 | 34935 ft | 404 kts | 242° |
| 2026-05-08 05:40 | 42.00096 | -4.19028 | 34935 ft | 404 kts | 244° |
| 2026-05-08 05:40 | 41.97944 | -4.26017 | 34935 ft | 404 kts | 244° |
| 2026-05-08 05:41 | 41.95772 | -4.32984 | 34933 ft | 404 kts | 244° |
| 2026-05-08 05:41 | 41.93577 | -4.39880 | 34931 ft | 404 kts | 243° |
| 2026-05-08 05:42 | 41.91351 | -4.46805 | 34926 ft | 404 kts | 243° |
| 2026-05-08 05:42 | 41.89127 | -4.53714 | 34918 ft | 404 kts | 243° |
| 2026-05-08 05:43 | 41.86905 | -4.60645 | 34926 ft | 405 kts | 243° |
| 2026-05-08 05:43 | 41.84673 | -4.67582 | 34912 ft | 406 kts | 243° |
| 2026-05-08 05:44 | 41.82420 | -4.74541 | 34907 ft | 407 kts | 243° |
| 2026-05-08 05:44 | 41.80166 | -4.81515 | 34902 ft | 408 kts | 243° |
| 2026-05-08 05:45 | 41.77908 | -4.88472 | 34903 ft | 408 kts | 243° |
| 2026-05-08 05:45 | 41.75635 | -4.95437 | 34939 ft | 408 kts | 243° |
| 2026-05-08 05:46 | 41.73355 | -5.02419 | 34914 ft | 410 kts | 242° |
| 2026-05-08 05:46 | 41.71066 | -5.09417 | 34903 ft | 410 kts | 242° |
| 2026-05-08 05:47 | 41.68774 | -5.16415 | 34898 ft | 411 kts | 242° |
| 2026-05-08 05:47 | 41.66489 | -5.23368 | 34895 ft | 411 kts | 242° |
| 2026-05-08 05:48 | 41.64184 | -5.30369 | 34896 ft | 411 kts | 242° |
| 2026-05-08 05:48 | 41.61868 | -5.37372 | 34919 ft | 412 kts | 242° |
| 2026-05-08 05:49 | 41.59550 | -5.44365 | 34906 ft | 412 kts | 242° |
| 2026-05-08 05:49 | 41.57223 | -5.51363 | 34891 ft | 412 kts | 241° |
| 2026-05-08 05:50 | 41.54886 | -5.58354 | 34898 ft | 413 kts | 241° |
| 2026-05-08 05:50 | 41.52968 | -5.65604 | 34898 ft | 421 kts | 255° |
| 2026-05-08 05:51 | 41.52352 | -5.73413 | 34918 ft | 425 kts | 259° |
| 2026-05-08 05:51 | 41.51787 | -5.81268 | 34895 ft | 426 kts | 259° |
| 2026-05-08 05:52 | 41.51210 | -5.89162 | 34893 ft | 427 kts | 259° |
| 2026-05-08 05:52 | 41.50629 | -5.97049 | 34888 ft | 428 kts | 259° |
| 2026-05-08 05:53 | 41.50043 | -6.04955 | 34891 ft | 428 kts | 259° |
| 2026-05-08 05:53 | 41.49459 | -6.12804 | 34904 ft | 428 kts | 258° |
| 2026-05-08 05:54 | 41.48962 | -6.19436 | 34891 ft | 429 kts | 258° |
| 2026-05-08 05:54 | 41.48343 | -6.27352 | 34884 ft | 428 kts | 256° |
| 2026-05-08 05:55 | 41.47030 | -6.35027 | 34886 ft | 424 kts | 251° |
| 2026-05-08 05:55 | 41.45644 | -6.42681 | 34886 ft | 425 kts | 251° |
| 2026-05-08 05:56 | 41.44258 | -6.50336 | 34903 ft | 426 kts | 251° |
| 2026-05-08 05:56 | 41.43554 | -6.54207 | 34667 ft | 433 kts | 251° |
| 2026-05-08 05:56 | 41.42839 | -6.58124 | 34430 ft | 436 kts | 250° |
| 2026-05-08 05:56 | 41.42119 | -6.62050 | 34185 ft | 437 kts | 250° |
| 2026-05-08 05:57 | 41.41394 | -6.65998 | 33778 ft | 439 kts | 250° |
| 2026-05-08 05:57 | 41.40661 | -6.69968 | 32772 ft | 445 kts | 250° |
| 2026-05-08 05:57 | 41.39918 | -6.73981 | 31879 ft | 448 kts | 251° |
| 2026-05-08 05:57 | 41.39172 | -6.78013 | 31228 ft | 446 kts | 251° |
| 2026-05-08 05:58 | 41.38438 | -6.81999 | 30657 ft | 442 kts | 251° |
| 2026-05-08 05:58 | 41.37707 | -6.85956 | 30081 ft | 440 kts | 251° |
| 2026-05-08 05:58 | 41.36983 | -6.89850 | 29410 ft | 437 kts | 251° |
| 2026-05-08 05:58 | 41.36256 | -6.93754 | 28844 ft | 432 kts | 251° |
| 2026-05-08 05:59 | 41.35535 | -6.97619 | 28268 ft | 428 kts | 251° |
| 2026-05-08 05:59 | 41.34819 | -7.01454 | 27706 ft | 424 kts | 251° |
| 2026-05-08 05:59 | 41.34111 | -7.05236 | 27157 ft | 419 kts | 251° |
| 2026-05-08 05:59 | 41.33409 | -7.08980 | 26599 ft | 415 kts | 251° |
| 2026-05-08 06:00 | 41.32710 | -7.12694 | 26051 ft | 411 kts | 251° |
| 2026-05-08 06:00 | 41.32016 | -7.16368 | 25514 ft | 408 kts | 251° |
| 2026-05-08 06:00 | 41.31327 | -7.20008 | 24999 ft | 404 kts | 251° |
| 2026-05-08 06:00 | 41.30647 | -7.23601 | 24512 ft | 400 kts | 251° |
| 2026-05-08 06:01 | 41.29968 | -7.27185 | 24009 ft | 397 kts | 252° |
| 2026-05-08 06:01 | 41.29297 | -7.30721 | 23528 ft | 393 kts | 252° |
| 2026-05-08 06:01 | 41.28634 | -7.34222 | 23006 ft | 389 kts | 252° |
| 2026-05-08 06:01 | 41.27977 | -7.37677 | 22559 ft | 383 kts | 252° |
| 2026-05-08 06:02 | 41.27322 | -7.41100 | 22113 ft | 378 kts | 252° |
| 2026-05-08 06:02 | 41.26676 | -7.44471 | 21673 ft | 374 kts | 251° |
| 2026-05-08 06:02 | 41.26036 | -7.47795 | 21238 ft | 370 kts | 251° |
| 2026-05-08 06:02 | 41.25402 | -7.51090 | 20790 ft | 367 kts | 251° |
| 2026-05-08 06:03 | 41.24768 | -7.54381 | 20343 ft | 365 kts | 251° |
| 2026-05-08 06:03 | 41.24140 | -7.57631 | 19891 ft | 363 kts | 251° |
| 2026-05-08 06:03 | 41.23512 | -7.60869 | 19463 ft | 361 kts | 251° |
| 2026-05-08 06:03 | 41.22886 | -7.64094 | 18979 ft | 360 kts | 251° |
| 2026-05-08 06:04 | 41.22262 | -7.67308 | 18516 ft | 361 kts | 251° |
| 2026-05-08 06:04 | 41.21634 | -7.70544 | 18027 ft | 361 kts | 251° |
| 2026-05-08 06:04 | 41.21012 | -7.73763 | 17534 ft | 360 kts | 251° |
| 2026-05-08 06:04 | 41.20394 | -7.76976 | 17073 ft | 358 kts | 251° |
| 2026-05-08 06:05 | 41.19777 | -7.80171 | 16618 ft | 356 kts | 251° |
| 2026-05-08 06:05 | 41.19157 | -7.83352 | 16150 ft | 354 kts | 251° |
| 2026-05-08 06:05 | 41.18538 | -7.86504 | 15708 ft | 353 kts | 250° |
| 2026-05-08 06:05 | 41.17835 | -7.89604 | 15255 ft | 348 kts | 243° |
| 2026-05-08 06:06 | 41.16843 | -7.92511 | 14810 ft | 344 kts | 240° |
| 2026-05-08 06:06 | 41.15839 | -7.95392 | 14358 ft | 343 kts | 240° |
| 2026-05-08 06:06 | 41.14853 | -7.98230 | 13913 ft | 342 kts | 240° |
| 2026-05-08 06:06 | 41.13858 | -8.01097 | 13434 ft | 342 kts | 240° |
| 2026-05-08 06:07 | 41.12873 | -8.03942 | 12963 ft | 338 kts | 240° |
| 2026-05-08 06:07 | 41.11894 | -8.06770 | 12505 ft | 335 kts | 240° |
| 2026-05-08 06:07 | 41.10924 | -8.09565 | 12050 ft | 333 kts | 240° |
| 2026-05-08 06:07 | 41.09958 | -8.12341 | 11594 ft | 330 kts | 240° |
| 2026-05-08 06:08 | 41.08996 | -8.15095 | 11129 ft | 329 kts | 240° |
| 2026-05-08 06:08 | 41.08036 | -8.17841 | 10663 ft | 325 kts | 240° |
| 2026-05-08 06:08 | 41.07095 | -8.20537 | 10547 ft | 319 kts | 240° |
| 2026-05-08 06:08 | 41.06187 | -8.23140 | 10143 ft | 306 kts | 240° |
| 2026-05-08 06:09 | 41.05305 | -8.25663 | 10020 ft | 295 kts | 240° |
| 2026-05-08 06:09 | 41.04458 | -8.28080 | 9896 ft | 284 kts | 239° |
| 2026-05-08 06:09 | 41.03635 | -8.30425 | 9659 ft | 278 kts | 239° |
| 2026-05-08 06:09 | 41.02878 | -8.32771 | 9307 ft | 278 kts | 246° |
| 2026-05-08 06:10 | 41.02434 | -8.35266 | 8951 ft | 279 kts | 253° |
| 2026-05-08 06:10 | 41.02030 | -8.37782 | 8569 ft | 279 kts | 253° |
| 2026-05-08 06:10 | 41.01625 | -8.40286 | 8192 ft | 276 kts | 254° |
| 2026-05-08 06:10 | 41.01224 | -8.42761 | 7830 ft | 274 kts | 254° |
| 2026-05-08 06:11 | 41.00823 | -8.45232 | 7462 ft | 273 kts | 254° |
| 2026-05-08 06:11 | 41.00427 | -8.47669 | 7101 ft | 270 kts | 255° |
| 2026-05-08 06:11 | 41.00039 | -8.50098 | 6722 ft | 269 kts | 255° |
| 2026-05-08 06:11 | 40.99674 | -8.52524 | 6336 ft | 268 kts | 256° |
| 2026-05-08 06:12 | 40.99324 | -8.54918 | 5940 ft | 259 kts | 257° |
| 2026-05-08 06:12 | 40.98992 | -8.57204 | 5580 ft | 246 kts | 258° |
| 2026-05-08 06:12 | 40.99020 | -8.59403 | 5237 ft | 238 kts | 287° |
| 2026-05-08 06:12 | 40.99907 | -8.61148 | 4982 ft | 233 kts | 321° |
| 2026-05-08 06:13 | 41.01396 | -8.62005 | 4712 ft | 237 kts | 347° |
| 2026-05-08 06:13 | 41.02993 | -8.62434 | 4351 ft | 232 kts | 348° |
| 2026-05-08 06:13 | 41.04556 | -8.62840 | 4026 ft | 226 kts | 348° |
| 2026-05-08 06:13 | 41.06085 | -8.63238 | 3695 ft | 221 kts | 348° |
| 2026-05-08 06:14 | 41.07578 | -8.63624 | 3427 ft | 216 kts | 349° |
| 2026-05-08 06:14 | 41.09055 | -8.64003 | 3101 ft | 212 kts | 349° |
| 2026-05-08 06:14 | 41.10462 | -8.64366 | 2836 ft | 204 kts | 348° |
| 2026-05-08 06:14 | 41.11824 | -8.64723 | 2551 ft | 195 kts | 348° |
| 2026-05-08 06:15 | 41.13134 | -8.65065 | 2301 ft | 187 kts | 348° |
| 2026-05-08 06:15 | 41.14388 | -8.65393 | 2048 ft | 182 kts | 348° |
| 2026-05-08 06:15 | 41.15583 | -8.65705 | 1810 ft | 168 kts | 348° |
| 2026-05-08 06:15 | 41.16679 | -8.65992 | 1582 ft | 155 kts | 349° |
| 2026-05-08 06:16 | 41.17714 | -8.66263 | 1377 ft | 149 kts | 349° |
| 2026-05-08 06:16 | 41.18728 | -8.66527 | 1180 ft | 147 kts | 349° |
| 2026-05-08 06:16 | 41.19725 | -8.66786 | 997 ft | 145 kts | 349° |
| 2026-05-08 06:16 | 41.20714 | -8.67042 | 827 ft | 145 kts | 350° |
| 2026-05-08 06:17 | 41.22680 | -8.67566 | 424 ft | 144 kts | 350° |
| 2026-05-08 06:17 | 41.23660 | -8.67825 | 242 ft | 141 kts | 350° |
| 2026-05-08 06:17 | 41.24533 | -8.68053 | 207 ft | 109 kts | 349° |
| 2026-05-08 06:18 | 41.25108 | -8.68204 | 186 ft | 60 kts | 349° |
| 2026-05-08 06:18 | 41.25435 | -8.68289 | 176 ft | 40 kts | 348° |
| 2026-05-08 06:18 | 41.25587 | -8.68285 | 173 ft | 19 kts | 58° |
| 2026-05-08 06:18 | 41.25603 | -8.68133 | 170 ft | 15 kts | 117° |
| 2026-05-08 06:19 | 41.25518 | -8.68082 | 174 ft | 13 kts | 169° |
| 2026-05-08 06:19 | 41.25402 | -8.68051 | 178 ft | 19 kts | 169° |
| 2026-05-08 06:19 | 41.25277 | -8.68019 | 182 ft | 18 kts | 169° |
| 2026-05-08 06:19 | 41.25164 | -8.67989 | 194 ft | 16 kts | 168° |
| 2026-05-08 06:20 | 41.25025 | -8.67952 | 199 ft | 22 kts | 168° |
| 2026-05-08 06:20 | 41.24883 | -8.67911 | 208 ft | 20 kts | 162° |
| 2026-05-08 06:20 | 41.24765 | -8.67832 | 215 ft | 19 kts | 161° |
| 2026-05-08 06:20 | 41.24642 | -8.67797 | 212 ft | 17 kts | 169° |
| 2026-05-08 06:21 | 41.24535 | -8.67770 | 222 ft | 15 kts | 169° |
| 2026-05-08 06:21 | 41.24440 | -8.67745 | 223 ft | 15 kts | 169° |
| 2026-05-08 06:21 | 41.24339 | -8.67717 | 229 ft | 14 kts | 168° |
| 2026-05-08 06:21 | 41.24258 | -8.67624 | 235 ft | 16 kts | 124° |
| 2026-05-08 06:22 | 41.24173 | -8.67566 | 238 ft | 16 kts | 170° |
| 2026-05-08 06:22 | 41.24059 | -8.67538 | 238 ft | 17 kts | 169° |
| 2026-05-08 06:22 | 41.23940 | -8.67507 | 238 ft | 15 kts | 169° |
| 2026-05-08 06:22 | 41.23862 | -8.67466 | 240 ft | 9 kts | 117° |
| 2026-05-08 06:23 | 41.23866 | -8.67414 | 243 ft | 3 kts | 78° |
| 2026-05-08 06:23 | 41.23867 | -8.67405 | 243 ft | 2 kts | 78° |
| 2026-05-08 06:23 | 41.23868 | -8.67399 | 243 ft | 0 kts | 78° |
| 2026-05-08 06:23 | 41.23870 | -8.67388 | 244 ft | 0 kts | 78° |